sensor_id;sensor_type;location;lat;lon;timestamp;pressure;altitude;pressure_sealevel;temperature;humidity
13420;BME280;6781;58.440;15.470;2023-05-29T00:02:06;101089.94;;;9.54;100.00
13420;BME280;6781;58.440;15.470;2023-05-29T00:04:33;101006.84;;;9.06;100.00
13420;BME280;6781;58.440;15.470;2023-05-29T00:07:01;101113.03;;;9.57;100.00
13420;BME280;6781;58.440;15.470;2023-05-29T00:09:28;101038.03;;;9.18;100.00
13420;BME280;6781;58.440;15.470;2023-05-29T00:11:55;101095.00;;;9.43;100.00
13420;BME280;6781;58.440;15.470;2023-05-29T00:14:22;101159.06;;;9.66;100.00
13420;BME280;6781;58.440;15.470;2023-05-29T00:16:49;101146.84;;;9.68;100.00
13420;BME280;6781;58.440;15.470;2023-05-29T00:19:19;101135.75;;;9.66;100.00
13420;BME280;6781;58.440;15.470;2023-05-29T00:21:46;101116.56;;;9.56;100.00
13420;BME280;6781;58.440;15.470;2023-05-29T00:24:14;100959.06;;;8.60;100.00
13420;BME280;6781;58.440;15.470;2023-05-29T00:26:41;101132.44;;;9.64;100.00
13420;BME280;6781;58.440;15.470;2023-05-29T00:29:08;100993.84;;;8.81;100.00
13420;BME280;6781;58.440;15.470;2023-05-29T00:31:35;101113.44;;;9.51;100.00
13420;BME280;6781;58.440;15.470;2023-05-29T00:34:03;101138.41;;;9.52;100.00
13420;BME280;6781;58.440;15.470;2023-05-29T00:36:31;101128.25;;;9.49;100.00
13420;BME280;6781;58.440;15.470;2023-05-29T00:38:58;101090.59;;;9.18;100.00
13420;BME280;6781;58.440;15.470;2023-05-29T00:41:25;101039.81;;;8.90;100.00
13420;BME280;6781;58.440;15.470;2023-05-29T00:43:52;100954.81;;;8.32;100.00
13420;BME280;6781;58.440;15.470;2023-05-29T00:46:20;101082.06;;;9.03;100.00
13420;BME280;6781;58.440;15.470;2023-05-29T00:48:56;100867.34;;;7.72;100.00
13420;BME280;6781;58.440;15.470;2023-05-29T00:51:25;101172.00;;;9.27;100.00
13420;BME280;6781;58.440;15.470;2023-05-29T00:53:56;101150.03;;;9.20;100.00
13420;BME280;6781;58.440;15.470;2023-05-29T00:56:24;101151.69;;;9.21;100.00
13420;BME280;6781;58.440;15.470;2023-05-29T00:58:52;100931.03;;;7.86;100.00
13420;BME280;6781;58.440;15.470;2023-05-29T01:01:20;101155.19;;;9.20;100.00
13420;BME280;6781;58.440;15.470;2023-05-29T01:03:48;101105.81;;;8.83;100.00
13420;BME280;6781;58.440;15.470;2023-05-29T01:06:16;101174.38;;;9.03;100.00
13420;BME280;6781;58.440;15.470;2023-05-29T01:08:43;100954.69;;;7.51;100.00
13420;BME280;6781;58.440;15.470;2023-05-29T01:11:17;101108.94;;;8.61;100.00
13420;BME280;6781;58.440;15.470;2023-05-29T01:13:51;101031.38;;;8.06;100.00
13420;BME280;6781;58.440;15.470;2023-05-29T01:16:24;101106.47;;;8.45;100.00
13420;BME280;6781;58.440;15.470;2023-05-29T01:18:59;101150.38;;;8.60;100.00
13420;BME280;6781;58.440;15.470;2023-05-29T01:21:37;101128.22;;;8.27;100.00
13420;BME280;6781;58.440;15.470;2023-05-29T01:24:14;100993.22;;;7.54;100.00
13420;BME280;6781;58.440;15.470;2023-05-29T01:26:54;101054.25;;;7.83;100.00
13420;BME280;6781;58.440;15.470;2023-05-29T01:29:24;101040.78;;;7.78;100.00
13420;BME280;6781;58.440;15.470;2023-05-29T01:31:52;101092.63;;;7.90;100.00
13420;BME280;6781;58.440;15.470;2023-05-29T01:34:20;101057.19;;;7.77;100.00
13420;BME280;6781;58.440;15.470;2023-05-29T01:36:47;101185.31;;;8.38;100.00
13420;BME280;6781;58.440;15.470;2023-05-29T01:39:14;101017.13;;;7.28;100.00
13420;BME280;6781;58.440;15.470;2023-05-29T01:41:43;101096.81;;;7.62;100.00
13420;BME280;6781;58.440;15.470;2023-05-29T01:44:13;101091.78;;;7.75;100.00
13420;BME280;6781;58.440;15.470;2023-05-29T01:46:42;101151.81;;;7.93;100.00
13420;BME280;6781;58.440;15.470;2023-05-29T01:49:11;101175.28;;;8.18;100.00
13420;BME280;6781;58.440;15.470;2023-05-29T01:51:39;101087.59;;;7.58;100.00
13420;BME280;6781;58.440;15.470;2023-05-29T01:54:07;101158.84;;;8.05;100.00
13420;BME280;6781;58.440;15.470;2023-05-29T01:56:35;101026.50;;;7.14;100.00
13420;BME280;6781;58.440;15.470;2023-05-29T01:59:03;100951.25;;;6.64;100.00
13420;BME280;6781;58.440;15.470;2023-05-29T02:01:32;101067.38;;;7.36;100.00
13420;BME280;6781;58.440;15.470;2023-05-29T02:03:59;101142.38;;;7.63;100.00
13420;BME280;6781;58.440;15.470;2023-05-29T02:09:02;101217.63;;;8.01;100.00
13420;BME280;6781;58.440;15.470;2023-05-29T02:11:29;101228.38;;;7.94;100.00
13420;BME280;6781;58.440;15.470;2023-05-29T02:13:56;101224.72;;;7.98;100.00
13420;BME280;6781;58.440;15.470;2023-05-29T02:16:23;101231.50;;;7.84;100.00
13420;BME280;6781;58.440;15.470;2023-05-29T02:18:54;101105.38;;;7.18;100.00
13420;BME280;6781;58.440;15.470;2023-05-29T02:21:22;101223.56;;;7.88;100.00
13420;BME280;6781;58.440;15.470;2023-05-29T02:23:49;101089.25;;;6.99;100.00
13420;BME280;6781;58.440;15.470;2023-05-29T02:26:16;101169.88;;;7.48;100.00
13420;BME280;6781;58.440;15.470;2023-05-29T02:28:43;101042.59;;;6.74;100.00
13420;BME280;6781;58.440;15.470;2023-05-29T02:31:10;101232.59;;;7.80;100.00
13420;BME280;6781;58.440;15.470;2023-05-29T02:33:37;101129.41;;;7.19;100.00
13420;BME280;6781;58.440;15.470;2023-05-29T02:36:06;101192.44;;;7.45;100.00
13420;BME280;6781;58.440;15.470;2023-05-29T02:38:37;101082.75;;;6.78;100.00
13420;BME280;6781;58.440;15.470;2023-05-29T02:41:04;100978.47;;;6.22;100.00
13420;BME280;6781;58.440;15.470;2023-05-29T02:43:31;101216.53;;;7.75;100.00
13420;BME280;6781;58.440;15.470;2023-05-29T02:45:58;101157.59;;;7.38;100.00
13420;BME280;6781;58.440;15.470;2023-05-29T02:48:25;101236.25;;;7.76;100.00
13420;BME280;6781;58.440;15.470;2023-05-29T02:50:52;101147.97;;;7.10;100.00
13420;BME280;6781;58.440;15.470;2023-05-29T02:53:21;101078.66;;;6.90;100.00
13420;BME280;6781;58.440;15.470;2023-05-29T02:55:48;101057.88;;;6.77;100.00
13420;BME280;6781;58.440;15.470;2023-05-29T02:58:16;101248.75;;;7.84;100.00
13420;BME280;6781;58.440;15.470;2023-05-29T03:00:43;101075.94;;;6.77;100.00
13420;BME280;6781;58.440;15.470;2023-05-29T03:03:10;101243.56;;;7.84;100.00
13420;BME280;6781;58.440;15.470;2023-05-29T03:05:37;100983.28;;;6.28;100.00
13420;BME280;6781;58.440;15.470;2023-05-29T03:08:04;101230.41;;;7.89;100.00
13420;BME280;6781;58.440;15.470;2023-05-29T03:10:33;101231.88;;;7.93;100.00
13420;BME280;6781;58.440;15.470;2023-05-29T03:13:00;101248.59;;;8.01;100.00
13420;BME280;6781;58.440;15.470;2023-05-29T03:15:27;101248.44;;;8.04;100.00
13420;BME280;6781;58.440;15.470;2023-05-29T03:17:54;101020.47;;;6.70;100.00
13420;BME280;6781;58.440;15.470;2023-05-29T03:20:21;101263.13;;;8.18;100.00
13420;BME280;6781;58.440;15.470;2023-05-29T03:22:49;101262.97;;;8.21;100.00
13420;BME280;6781;58.440;15.470;2023-05-29T03:25:16;101254.44;;;8.35;100.00
13420;BME280;6781;58.440;15.470;2023-05-29T03:27:45;101281.88;;;8.22;100.00
13420;BME280;6781;58.440;15.470;2023-05-29T03:30:12;101300.97;;;8.19;100.00
13420;BME280;6781;58.440;15.470;2023-05-29T03:32:39;101322.28;;;8.23;100.00
13420;BME280;6781;58.440;15.470;2023-05-29T03:35:07;101281.25;;;8.32;100.00
13420;BME280;6781;58.440;15.470;2023-05-29T03:37:34;101113.97;;;7.33;100.00
13420;BME280;6781;58.440;15.470;2023-05-29T03:40:01;101268.06;;;7.77;100.00
13420;BME280;6781;58.440;15.470;2023-05-29T03:42:29;101374.66;;;8.10;100.00
13420;BME280;6781;58.440;15.470;2023-05-29T03:44:58;101343.13;;;8.35;100.00
13420;BME280;6781;58.440;15.470;2023-05-29T03:47:25;101151.53;;;7.23;100.00
13420;BME280;6781;58.440;15.470;2023-05-29T03:49:52;101284.34;;;8.09;100.00
13420;BME280;6781;58.440;15.470;2023-05-29T03:52:19;101372.97;;;8.25;100.00
13420;BME280;6781;58.440;15.470;2023-05-29T03:54:46;101280.91;;;7.78;100.00
13420;BME280;6781;58.440;15.470;2023-05-29T03:57:13;101384.22;;;8.24;100.00
13420;BME280;6781;58.440;15.470;2023-05-29T03:59:41;101397.16;;;8.24;100.00
13420;BME280;6781;58.440;15.470;2023-05-29T04:02:09;101175.94;;;6.55;100.00
13420;BME280;6781;58.440;15.470;2023-05-29T04:04:36;101236.75;;;7.06;100.00
13420;BME280;6781;58.440;15.470;2023-05-29T04:07:05;101416.66;;;8.14;100.00
13420;BME280;6781;58.440;15.470;2023-05-29T04:09:32;101430.00;;;8.22;100.00
13420;BME280;6781;58.440;15.470;2023-05-29T04:12:00;101459.00;;;8.27;100.00
13420;BME280;6781;58.440;15.470;2023-05-29T04:14:28;101236.00;;;6.88;100.00
13420;BME280;6781;58.440;15.470;2023-05-29T04:16:55;101380.69;;;7.79;100.00
13420;BME280;6781;58.440;15.470;2023-05-29T04:19:24;101408.19;;;7.96;100.00
13420;BME280;6781;58.440;15.470;2023-05-29T04:21:54;101286.59;;;7.38;100.00
13420;BME280;6781;58.440;15.470;2023-05-29T04:24:21;101453.00;;;8.42;100.00
13420;BME280;6781;58.440;15.470;2023-05-29T04:26:49;101327.38;;;7.78;100.00
13420;BME280;6781;58.440;15.470;2023-05-29T04:29:16;101401.97;;;8.30;100.00
13420;BME280;6781;58.440;15.470;2023-05-29T04:31:45;101508.63;;;9.09;100.00
13420;BME280;6781;58.440;15.470;2023-05-29T04:34:12;101431.63;;;8.55;100.00
13420;BME280;6781;58.440;15.470;2023-05-29T04:36:44;101227.31;;;7.52;100.00
13420;BME280;6781;58.440;15.470;2023-05-29T04:39:11;101394.44;;;8.71;100.00
13420;BME280;6781;58.440;15.470;2023-05-29T04:41:39;101489.28;;;9.45;100.00
13420;BME280;6781;58.440;15.470;2023-05-29T04:44:06;101474.66;;;9.44;100.00
13420;BME280;6781;58.440;15.470;2023-05-29T04:46:36;101487.44;;;9.47;100.00
13420;BME280;6781;58.440;15.470;2023-05-29T04:49:03;101439.53;;;9.26;100.00
13420;BME280;6781;58.440;15.470;2023-05-29T04:51:30;101357.97;;;8.76;100.00
13420;BME280;6781;58.440;15.470;2023-05-29T04:53:59;101496.97;;;9.75;100.00
13420;BME280;6781;58.440;15.470;2023-05-29T04:56:26;101184.16;;;8.14;100.00
13420;BME280;6781;58.440;15.470;2023-05-29T04:58:53;101428.88;;;9.73;100.00
13420;BME280;6781;58.440;15.470;2023-05-29T05:01:20;101408.06;;;9.60;100.00
13420;BME280;6781;58.440;15.470;2023-05-29T05:03:49;101337.84;;;9.24;100.00
13420;BME280;6781;58.440;15.470;2023-05-29T05:06:16;101403.41;;;9.79;100.00
13420;BME280;6781;58.440;15.470;2023-05-29T05:08:44;101432.88;;;10.20;100.00
13420;BME280;6781;58.440;15.470;2023-05-29T05:11:14;101452.91;;;10.30;100.00
13420;BME280;6781;58.440;15.470;2023-05-29T05:13:41;101431.06;;;10.34;100.00
13420;BME280;6781;58.440;15.470;2023-05-29T05:16:08;101294.38;;;9.70;100.00
13420;BME280;6781;58.440;15.470;2023-05-29T05:18:36;101128.28;;;8.68;100.00
13420;BME280;6781;58.440;15.470;2023-05-29T05:21:04;101280.09;;;9.77;100.00
13420;BME280;6781;58.440;15.470;2023-05-29T05:23:32;101199.72;;;9.25;100.00
13420;BME280;6781;58.440;15.470;2023-05-29T05:25:59;101303.78;;;9.98;100.00
13420;BME280;6781;58.440;15.470;2023-05-29T05:28:27;101356.78;;;10.33;100.00
13420;BME280;6781;58.440;15.470;2023-05-29T05:30:55;101327.31;;;10.22;100.00
13420;BME280;6781;58.440;15.470;2023-05-29T05:33:22;101362.28;;;10.41;100.00
13420;BME280;6781;58.440;15.470;2023-05-29T05:35:49;101257.94;;;9.86;100.00
13420;BME280;6781;58.440;15.470;2023-05-29T05:38:16;101384.59;;;10.57;100.00
13420;BME280;6781;58.440;15.470;2023-05-29T05:40:43;101408.09;;;10.93;100.00
13420;BME280;6781;58.440;15.470;2023-05-29T05:43:10;101347.47;;;10.56;100.00
13420;BME280;6781;58.440;15.470;2023-05-29T05:45:39;101305.53;;;10.50;100.00
13420;BME280;6781;58.440;15.470;2023-05-29T05:48:07;101286.66;;;10.22;100.00
13420;BME280;6781;58.440;15.470;2023-05-29T05:50:54;101157.81;;;9.59;100.00
13420;BME280;6781;58.440;15.470;2023-05-29T05:53:35;101390.88;;;11.18;100.00
13420;BME280;6781;58.440;15.470;2023-05-29T05:56:08;101375.41;;;11.03;100.00
13420;BME280;6781;58.440;15.470;2023-05-29T05:58:35;101394.50;;;11.28;100.00
13420;BME280;6781;58.440;15.470;2023-05-29T06:01:08;101313.44;;;10.86;100.00
13420;BME280;6781;58.440;15.470;2023-05-29T06:03:35;101394.25;;;11.44;100.00
13420;BME280;6781;58.440;15.470;2023-05-29T06:06:20;101288.50;;;10.96;100.00
13420;BME280;6781;58.440;15.470;2023-05-29T06:08:57;101420.53;;;11.64;100.00
13420;BME280;6781;58.440;15.470;2023-05-29T06:11:24;101394.59;;;11.76;100.00
13420;BME280;6781;58.440;15.470;2023-05-29T06:13:52;101346.38;;;11.35;100.00
13420;BME280;6781;58.440;15.470;2023-05-29T06:16:20;101140.44;;;10.12;100.00
13420;BME280;6781;58.440;15.470;2023-05-29T06:18:49;101129.25;;;10.24;100.00
13420;BME280;6781;58.440;15.470;2023-05-29T06:21:16;101286.00;;;11.07;100.00
13420;BME280;6781;58.440;15.470;2023-05-29T06:23:43;101370.72;;;12.07;100.00
13420;BME280;6781;58.440;15.470;2023-05-29T06:26:10;101274.97;;;11.17;100.00
13420;BME280;6781;58.440;15.470;2023-05-29T06:28:42;101336.09;;;11.83;100.00
13420;BME280;6781;58.440;15.470;2023-05-29T06:31:24;101228.00;;;11.20;100.00
13420;BME280;6781;58.440;15.470;2023-05-29T06:34:01;101179.50;;;10.96;100.00
13420;BME280;6781;58.440;15.470;2023-05-29T06:36:32;101235.09;;;11.18;100.00
13420;BME280;6781;58.440;15.470;2023-05-29T06:39:13;101364.28;;;12.00;100.00
13420;BME280;6781;58.440;15.470;2023-05-29T06:41:43;101258.31;;;11.32;100.00
13420;BME280;6781;58.440;15.470;2023-05-29T06:44:17;101267.75;;;11.57;100.00
13420;BME280;6781;58.440;15.470;2023-05-29T06:46:50;101116.44;;;10.83;100.00
13420;BME280;6781;58.440;15.470;2023-05-29T06:49:17;101354.97;;;12.44;100.00
13420;BME280;6781;58.440;15.470;2023-05-29T06:51:46;101113.44;;;11.00;100.00
13420;BME280;6781;58.440;15.470;2023-05-29T06:54:14;101145.53;;;10.99;100.00
13420;BME280;6781;58.440;15.470;2023-05-29T06:56:51;101126.03;;;11.18;100.00
13420;BME280;6781;58.440;15.470;2023-05-29T06:59:26;101252.25;;;12.14;100.00
13420;BME280;6781;58.440;15.470;2023-05-29T07:01:54;101135.94;;;11.48;100.00
13420;BME280;6781;58.440;15.470;2023-05-29T07:04:21;101321.16;;;12.55;100.00
13420;BME280;6781;58.440;15.470;2023-05-29T07:06:48;101178.72;;;11.79;100.00
13420;BME280;6781;58.440;15.470;2023-05-29T07:09:15;101364.09;;;13.29;100.00
13420;BME280;6781;58.440;15.470;2023-05-29T07:11:42;101280.50;;;12.65;100.00
13420;BME280;6781;58.440;15.470;2023-05-29T07:14:09;101372.56;;;13.76;100.00
13420;BME280;6781;58.440;15.470;2023-05-29T07:16:36;101370.41;;;14.13;100.00
13420;BME280;6781;58.440;15.470;2023-05-29T07:19:04;101266.41;;;13.66;100.00
13420;BME280;6781;58.440;15.470;2023-05-29T07:21:31;101326.09;;;13.81;100.00
13420;BME280;6781;58.440;15.470;2023-05-29T07:23:59;101237.59;;;13.36;100.00
13420;BME280;6781;58.440;15.470;2023-05-29T07:26:26;101187.78;;;13.18;100.00
13420;BME280;6781;58.440;15.470;2023-05-29T07:28:53;101375.41;;;14.37;100.00
13420;BME280;6781;58.440;15.470;2023-05-29T07:31:20;101330.94;;;14.59;100.00
13420;BME280;6781;58.440;15.470;2023-05-29T07:33:49;101339.13;;;15.06;100.00
13420;BME280;6781;58.440;15.470;2023-05-29T07:36:17;101274.56;;;14.36;98.03
13420;BME280;6781;58.440;15.470;2023-05-29T07:38:44;101356.34;;;15.08;98.35
13420;BME280;6781;58.440;15.470;2023-05-29T07:41:11;101364.13;;;15.29;96.48
13420;BME280;6781;58.440;15.470;2023-05-29T07:43:38;101350.88;;;15.21;96.02
13420;BME280;6781;58.440;15.470;2023-05-29T07:46:05;101341.94;;;15.23;95.95
13420;BME280;6781;58.440;15.470;2023-05-29T07:48:35;101355.78;;;15.05;94.84
13420;BME280;6781;58.440;15.470;2023-05-29T07:51:05;101352.88;;;14.77;93.92
13420;BME280;6781;58.440;15.470;2023-05-29T07:53:36;101145.38;;;14.20;93.12
13420;BME280;6781;58.440;15.470;2023-05-29T07:56:04;101274.97;;;14.52;91.66
13420;BME280;6781;58.440;15.470;2023-05-29T07:58:31;101325.97;;;15.17;93.77
13420;BME280;6781;58.440;15.470;2023-05-29T08:00:59;101358.81;;;15.50;93.42
13420;BME280;6781;58.440;15.470;2023-05-29T08:03:26;101341.91;;;14.83;90.79
13420;BME280;6781;58.440;15.470;2023-05-29T08:05:53;101144.72;;;14.49;91.35
13420;BME280;6781;58.440;15.470;2023-05-29T08:08:20;101295.34;;;15.38;89.24
13420;BME280;6781;58.440;15.470;2023-05-29T08:10:49;101313.72;;;15.67;88.43
13420;BME280;6781;58.440;15.470;2023-05-29T08:13:16;101335.47;;;16.35;87.85
13420;BME280;6781;58.440;15.470;2023-05-29T08:15:45;101309.44;;;16.14;88.14
13420;BME280;6781;58.440;15.470;2023-05-29T08:18:12;101343.75;;;16.11;86.21
13420;BME280;6781;58.440;15.470;2023-05-29T08:20:39;101148.75;;;14.72;86.90
13420;BME280;6781;58.440;15.470;2023-05-29T08:23:06;101289.31;;;15.47;88.11
13420;BME280;6781;58.440;15.470;2023-05-29T08:25:33;101300.34;;;15.70;87.27
13420;BME280;6781;58.440;15.470;2023-05-29T08:28:02;101202.91;;;14.70;86.06
13420;BME280;6781;58.440;15.470;2023-05-29T08:30:29;101371.75;;;15.51;88.02
13420;BME280;6781;58.440;15.470;2023-05-29T08:32:56;101336.81;;;15.52;85.98
13420;BME280;6781;58.440;15.470;2023-05-29T08:35:23;101294.84;;;15.63;85.93
13420;BME280;6781;58.440;15.470;2023-05-29T08:37:50;101294.44;;;15.68;83.90
13420;BME280;6781;58.440;15.470;2023-05-29T08:40:17;101266.97;;;16.40;84.16
13420;BME280;6781;58.440;15.470;2023-05-29T08:42:47;101200.00;;;15.42;83.58
13420;BME280;6781;58.440;15.470;2023-05-29T08:45:15;101166.38;;;15.86;84.24
13420;BME280;6781;58.440;15.470;2023-05-29T08:47:49;101336.69;;;16.41;82.48
13420;BME280;6781;58.440;15.470;2023-05-29T08:50:19;101326.72;;;16.73;84.86
13420;BME280;6781;58.440;15.470;2023-05-29T08:52:46;101321.47;;;16.73;82.58
13420;BME280;6781;58.440;15.470;2023-05-29T08:55:14;101327.59;;;17.74;84.74
13420;BME280;6781;58.440;15.470;2023-05-29T08:57:41;101275.84;;;17.84;78.26
13420;BME280;6781;58.440;15.470;2023-05-29T09:00:11;101291.22;;;17.97;78.57
13420;BME280;6781;58.440;15.470;2023-05-29T09:02:40;101105.59;;;16.66;76.42
13420;BME280;6781;58.440;15.470;2023-05-29T09:05:10;101224.00;;;18.04;78.49
13420;BME280;6781;58.440;15.470;2023-05-29T09:07:38;101305.16;;;17.79;73.83
13420;BME280;6781;58.440;15.470;2023-05-29T09:10:07;101171.38;;;17.26;75.02
13420;BME280;6781;58.440;15.470;2023-05-29T09:12:35;101140.25;;;17.67;75.83
13420;BME280;6781;58.440;15.470;2023-05-29T09:15:16;101295.81;;;18.64;73.46
13420;BME280;6781;58.440;15.470;2023-05-29T09:17:49;101242.91;;;17.89;72.16
13420;BME280;6781;58.440;15.470;2023-05-29T09:20:19;101194.91;;;17.18;73.15
13420;BME280;6781;58.440;15.470;2023-05-29T09:22:56;101298.94;;;17.98;72.43
13420;BME280;6781;58.440;15.470;2023-05-29T09:25:25;101235.63;;;18.01;72.97
13420;BME280;6781;58.440;15.470;2023-05-29T09:27:55;101182.34;;;18.69;74.69
13420;BME280;6781;58.440;15.470;2023-05-29T09:30:33;101176.31;;;18.84;71.21
13420;BME280;6781;58.440;15.470;2023-05-29T09:33:03;101299.34;;;19.31;71.14
13420;BME280;6781;58.440;15.470;2023-05-29T09:35:34;101284.09;;;18.84;70.20
13420;BME280;6781;58.440;15.470;2023-05-29T09:38:02;101245.66;;;18.92;69.90
13420;BME280;6781;58.440;15.470;2023-05-29T09:40:30;101299.19;;;18.57;71.90
13420;BME280;6781;58.440;15.470;2023-05-29T09:43:11;101262.50;;;18.73;71.48
13420;BME280;6781;58.440;15.470;2023-05-29T09:45:40;101276.69;;;19.46;72.57
13420;BME280;6781;58.440;15.470;2023-05-29T09:48:13;101147.19;;;18.70;69.89
13420;BME280;6781;58.440;15.470;2023-05-29T09:50:40;101255.53;;;18.98;69.34
13420;BME280;6781;58.440;15.470;2023-05-29T09:53:16;101285.34;;;19.23;70.29
13420;BME280;6781;58.440;15.470;2023-05-29T09:55:45;101204.94;;;19.12;68.16
13420;BME280;6781;58.440;15.470;2023-05-29T09:58:13;101085.63;;;18.97;68.10
13420;BME280;6781;58.440;15.470;2023-05-29T10:00:41;101266.38;;;21.12;67.19
13420;BME280;6781;58.440;15.470;2023-05-29T10:03:10;101281.84;;;20.21;65.21
13420;BME280;6781;58.440;15.470;2023-05-29T10:05:38;101151.03;;;19.73;65.96
13420;BME280;6781;58.440;15.470;2023-05-29T10:08:05;101229.59;;;20.49;63.88
13420;BME280;6781;58.440;15.470;2023-05-29T10:10:34;101274.13;;;20.03;63.76
13420;BME280;6781;58.440;15.470;2023-05-29T10:13:03;101195.81;;;20.84;65.49
13420;BME280;6781;58.440;15.470;2023-05-29T10:15:32;101065.94;;;20.28;63.28
13420;BME280;6781;58.440;15.470;2023-05-29T10:18:03;101269.03;;;21.43;60.99
13420;BME280;6781;58.440;15.470;2023-05-29T10:23:48;101231.28;;;20.26;55.48
13420;BME280;6781;58.440;15.470;2023-05-29T10:26:19;101212.84;;;20.18;56.06
13420;BME280;6781;58.440;15.470;2023-05-29T10:29:09;101056.63;;;18.56;57.26
13420;BME280;6781;58.440;15.470;2023-05-29T10:31:48;101265.50;;;20.50;60.42
13420;BME280;6781;58.440;15.470;2023-05-29T10:34:39;101229.44;;;20.34;58.08
13420;BME280;6781;58.440;15.470;2023-05-29T10:37:18;101176.38;;;19.82;57.91
13420;BME280;6781;58.440;15.470;2023-05-29T10:39:57;101198.06;;;20.08;55.83
13420;BME280;6781;58.440;15.470;2023-05-29T10:42:49;101040.09;;;19.04;52.47
13420;BME280;6781;58.440;15.470;2023-05-29T10:45:50;101243.91;;;20.86;56.13
13420;BME280;6781;58.440;15.470;2023-05-29T10:48:38;101228.06;;;20.94;56.34
13420;BME280;6781;58.440;15.470;2023-05-29T10:51:07;101128.81;;;20.39;55.99
13420;BME280;6781;58.440;15.470;2023-05-29T10:53:49;101258.25;;;21.53;55.58
13420;BME280;6781;58.440;15.470;2023-05-29T10:56:34;101134.91;;;20.70;55.41
13420;BME280;6781;58.440;15.470;2023-05-29T10:59:01;101200.88;;;20.62;54.17
13420;BME280;6781;58.440;15.470;2023-05-29T11:01:29;101255.81;;;21.12;57.05
13420;BME280;6781;58.440;15.470;2023-05-29T11:04:27;101253.72;;;21.62;57.19
13420;BME280;6781;58.440;15.470;2023-05-29T11:06:56;101188.72;;;20.84;57.59
13420;BME280;6781;58.440;15.470;2023-05-29T11:09:30;101268.44;;;19.41;56.31
13420;BME280;6781;58.440;15.470;2023-05-29T11:12:16;101268.88;;;19.12;57.44
13420;BME280;6781;58.440;15.470;2023-05-29T11:14:55;101149.03;;;18.94;59.84
13420;BME280;6781;58.440;15.470;2023-05-29T11:17:30;101298.66;;;19.21;57.86
13420;BME280;6781;58.440;15.470;2023-05-29T11:20:00;101268.53;;;19.74;57.92
13420;BME280;6781;58.440;15.470;2023-05-29T11:22:41;101101.66;;;18.19;55.03
13420;BME280;6781;58.440;15.470;2023-05-29T11:25:13;101249.41;;;18.81;55.73
13420;BME280;6781;58.440;15.470;2023-05-29T11:27:43;101245.09;;;19.30;57.18
13420;BME280;6781;58.440;15.470;2023-05-29T11:30:11;101084.31;;;18.34;54.52
13420;BME280;6781;58.440;15.470;2023-05-29T11:32:40;101241.03;;;19.52;51.84
13420;BME280;6781;58.440;15.470;2023-05-29T11:35:08;101169.75;;;19.13;52.75
13420;BME280;6781;58.440;15.470;2023-05-29T11:37:36;101148.09;;;19.52;52.68
13420;BME280;6781;58.440;15.470;2023-05-29T11:40:06;101218.94;;;20.18;52.79
13420;BME280;6781;58.440;15.470;2023-05-29T11:42:33;101232.31;;;19.68;51.00
13420;BME280;6781;58.440;15.470;2023-05-29T11:45:12;101161.75;;;19.63;53.32
13420;BME280;6781;58.440;15.470;2023-05-29T11:48:00;101241.06;;;20.64;53.90
13420;BME280;6781;58.440;15.470;2023-05-29T11:50:29;101185.97;;;20.30;51.19
13420;BME280;6781;58.440;15.470;2023-05-29T11:52:57;101237.34;;;20.82;52.94
13420;BME280;6781;58.440;15.470;2023-05-29T11:55:25;101185.34;;;18.90;49.44
13420;BME280;6781;58.440;15.470;2023-05-29T11:57:57;101242.84;;;19.84;53.57
13420;BME280;6781;58.440;15.470;2023-05-29T12:00:30;101032.13;;;18.39;50.63
13420;BME280;6781;58.440;15.470;2023-05-29T12:02:57;101232.31;;;19.76;52.86
13420;BME280;6781;58.440;15.470;2023-05-29T12:05:29;101199.56;;;18.63;51.35
13420;BME280;6781;58.440;15.470;2023-05-29T12:07:57;101235.88;;;19.34;52.16
13420;BME280;6781;58.440;15.470;2023-05-29T12:10:27;101253.38;;;19.68;52.05
13420;BME280;6781;58.440;15.470;2023-05-29T12:12:55;101168.75;;;18.90;50.77
13420;BME280;6781;58.440;15.470;2023-05-29T12:15:23;101089.78;;;18.57;50.58
13420;BME280;6781;58.440;15.470;2023-05-29T12:17:52;101125.38;;;18.85;49.68
13420;BME280;6781;58.440;15.470;2023-05-29T12:20:23;101207.91;;;20.14;51.62
13420;BME280;6781;58.440;15.470;2023-05-29T12:22:52;101057.19;;;19.96;53.32
13420;BME280;6781;58.440;15.470;2023-05-29T12:25:20;101233.16;;;20.64;50.48
13420;BME280;6781;58.440;15.470;2023-05-29T12:27:48;101223.59;;;19.92;49.32
13420;BME280;6781;58.440;15.470;2023-05-29T12:30:20;101178.84;;;19.59;49.50
13420;BME280;6781;58.440;15.470;2023-05-29T12:32:48;101170.09;;;19.91;50.92
13420;BME280;6781;58.440;15.470;2023-05-29T12:35:19;101056.88;;;18.29;50.46
13420;BME280;6781;58.440;15.470;2023-05-29T12:37:48;101220.81;;;19.61;53.83
13420;BME280;6781;58.440;15.470;2023-05-29T12:40:16;101205.47;;;19.48;52.74
13420;BME280;6781;58.440;15.470;2023-05-29T12:42:44;101227.06;;;19.60;49.30
13420;BME280;6781;58.440;15.470;2023-05-29T12:45:11;101245.66;;;19.74;49.71
13420;BME280;6781;58.440;15.470;2023-05-29T12:47:45;101120.81;;;18.11;47.41
13420;BME280;6781;58.440;15.470;2023-05-29T12:50:32;101217.13;;;19.29;48.80
13420;BME280;6781;58.440;15.470;2023-05-29T12:53:00;101211.97;;;18.53;48.13
13420;BME280;6781;58.440;15.470;2023-05-29T12:55:29;101000.28;;;17.84;50.24
13420;BME280;6781;58.440;15.470;2023-05-29T12:57:59;101215.03;;;19.90;51.29
13420;BME280;6781;58.440;15.470;2023-05-29T13:00:26;101039.28;;;18.88;50.29
13420;BME280;6781;58.440;15.470;2023-05-29T13:02:53;101047.44;;;19.41;50.14
13420;BME280;6781;58.440;15.470;2023-05-29T13:05:20;101167.34;;;20.32;50.47
13420;BME280;6781;58.440;15.470;2023-05-29T13:07:51;101173.06;;;19.96;48.51